KDLZ

Delaware Municipal - Jim Moore Field Airport

Delaware, Ohio, USA
METAR KDLZ 200655Z AUTO 20014G19KT 10SM CLR 16/12 A3009 RMK AO2
Observed Flight Rules
Feb-20 @ 06:55 UTC (33 minutes ago) Visual Flight Rules
Wind Visibility Clouds
200° at 14 knots
 Gusting to 19 knots
10 miles
  • Clear skies
Temperatures Readings
Current 16°C / 61°F
Dewpoint 12°C / 54°F
Humidity 77%
Altimeter 30.09" Hg
Pressure 1019 hPa
Elevation 289
METAR KDLZ 200655Z AUTO 20014G19KT 10SM CLR 16/12 A3009 RMK AO2
Observed Flight Rules
Feb-20 @ 06:55 UTC
(33 minutes ago)
VFR
Wind Visibility
200° at 14 knots
 Gusting to 19 knots
10 miles
Clouds
  • Clear skies
Temperature Dewpoint
16°C / 61°F 12°C / 54°F
Humidity Altimeter Pressure
77% 30.09" Hg 1019 hPa